createdAt,value
2019-05-18T00:00:13.858Z,996.33
2019-05-18T00:01:13.859Z,996.32
2019-05-18T00:02:13.890Z,996.32
2019-05-18T00:03:13.850Z,996.33
2019-05-18T00:04:13.845Z,996.31
2019-05-18T00:05:13.842Z,996.30
2019-05-18T00:06:13.836Z,996.34
2019-05-18T00:07:13.837Z,996.31
2019-05-18T00:08:13.831Z,996.30
2019-05-18T00:09:13.827Z,996.33
2019-05-18T00:10:13.842Z,996.29
2019-05-18T00:11:13.821Z,996.28
2019-05-18T00:12:13.817Z,996.25
2019-05-18T00:13:13.836Z,996.28
2019-05-18T00:14:13.808Z,996.29
2019-05-18T00:15:13.809Z,996.34
2019-05-18T00:16:13.803Z,996.30
2019-05-18T00:17:25.089Z,996.30
2019-05-18T00:18:13.800Z,996.34
2019-05-18T00:19:13.792Z,996.35
2019-05-18T00:20:13.789Z,996.34
2019-05-18T00:21:13.785Z,996.32
2019-05-18T00:22:13.781Z,996.33
2019-05-18T00:23:13.778Z,996.29
2019-05-18T00:24:13.774Z,996.27
2019-05-18T00:25:13.785Z,996.29
2019-05-18T00:26:13.766Z,996.25
2019-05-18T00:27:13.762Z,996.27
2019-05-18T00:28:13.761Z,996.28
2019-05-18T00:29:13.755Z,996.27
2019-05-18T00:30:13.760Z,996.28
2019-05-18T00:31:13.748Z,996.28
2019-05-18T00:32:13.765Z,996.25
2019-05-18T00:33:13.743Z,996.28
2019-05-18T00:34:13.738Z,996.28
2019-05-18T00:35:16.527Z,996.24
2019-05-18T00:36:13.730Z,996.30
2019-05-18T00:37:13.729Z,996.29
2019-05-18T00:38:13.723Z,996.27
2019-05-18T00:39:13.732Z,996.28
2019-05-18T00:40:13.719Z,996.30
2019-05-18T00:41:13.716Z,996.28
2019-05-18T00:42:13.707Z,996.27
2019-05-18T00:43:13.704Z,996.23
2019-05-18T00:44:13.701Z,996.27
2019-05-18T00:45:13.698Z,996.25
2019-05-18T00:46:13.701Z,996.27
2019-05-18T00:47:13.690Z,996.27
2019-05-18T00:48:13.685Z,996.29
2019-05-18T00:49:13.683Z,996.26
2019-05-18T00:50:13.690Z,996.28
2019-05-18T00:51:13.675Z,996.29
2019-05-18T00:52:13.672Z,996.26
2019-05-18T00:53:13.667Z,996.26
2019-05-18T00:54:13.665Z,996.28
2019-05-18T00:55:13.661Z,996.27
2019-05-18T00:56:13.656Z,996.28
2019-05-18T00:57:13.651Z,996.24
2019-05-18T00:58:13.647Z,996.24
2019-05-18T00:59:16.076Z,996.22
2019-05-18T01:00:13.639Z,996.28
2019-05-18T01:01:13.638Z,996.26
2019-05-18T01:02:13.632Z,996.23
2019-05-18T01:03:13.629Z,996.28
2019-05-18T01:04:13.625Z,996.23
2019-05-18T01:05:13.636Z,996.20
2019-05-18T01:06:13.625Z,996.23
2019-05-18T01:07:13.611Z,996.23
2019-05-18T01:08:13.611Z,996.18
2019-05-18T01:09:13.610Z,996.19
2019-05-18T01:10:13.605Z,996.19
2019-05-18T01:11:13.596Z,996.20
2019-05-18T01:12:13.593Z,996.21
2019-05-18T01:13:13.591Z,996.18
2019-05-18T01:14:13.585Z,996.13
2019-05-18T01:15:13.581Z,996.16
2019-05-18T01:16:13.579Z,996.16
2019-05-18T01:17:13.575Z,996.13
2019-05-18T01:18:13.569Z,996.16
2019-05-18T01:19:13.567Z,996.11
2019-05-18T01:20:13.562Z,996.13
2019-05-18T01:21:13.559Z,996.08
2019-05-18T01:22:13.558Z,996.08
2019-05-18T01:23:13.551Z,996.10
2019-05-18T01:24:13.546Z,996.06
2019-05-18T01:25:13.542Z,996.11
2019-05-18T01:26:13.538Z,996.10
2019-05-18T01:27:13.533Z,996.10
2019-05-18T01:28:13.530Z,996.11
2019-05-18T01:29:13.526Z,996.06
2019-05-18T01:30:13.522Z,996.05
2019-05-18T01:31:13.520Z,996.04
2019-05-18T01:32:13.515Z,996.09
2019-05-18T01:33:13.510Z,996.06
2019-05-18T01:34:13.506Z,996.04
2019-05-18T01:35:13.502Z,996.07
2019-05-18T01:36:13.497Z,996.05
2019-05-18T01:37:13.497Z,996.10
2019-05-18T01:38:13.490Z,996.07
2019-05-18T01:39:13.489Z,996.05
2019-05-18T01:40:13.482Z,996.04
2019-05-18T01:41:13.477Z,996.07
2019-05-18T01:42:13.476Z,996.03
2019-05-18T01:43:13.469Z,996.04
2019-05-18T01:44:13.465Z,996.10
2019-05-18T01:45:17.167Z,996.06
2019-05-18T01:46:13.455Z,996.07
2019-05-18T01:47:13.457Z,996.04
2019-05-18T01:48:14.655Z,996.05
2019-05-18T01:49:13.446Z,996.05
2019-05-18T01:50:13.441Z,996.03
2019-05-18T01:51:13.438Z,996.04
2019-05-18T01:52:13.431Z,996.02
2019-05-18T01:53:13.428Z,996.01
2019-05-18T01:54:13.430Z,996.05
2019-05-18T01:55:13.419Z,996.03
2019-05-18T01:56:13.415Z,996.04
2019-05-18T01:57:13.411Z,996.02
2019-05-18T01:58:13.405Z,996.03
2019-05-18T01:59:13.402Z,996.06
2019-05-18T02:00:13.397Z,996.08
2019-05-18T02:01:13.394Z,996.09
2019-05-18T02:02:13.391Z,996.05
2019-05-18T02:03:13.384Z,996.12
2019-05-18T02:04:13.383Z,996.07
2019-05-18T02:05:13.377Z,996.05
2019-05-18T02:06:13.472Z,996.05
2019-05-18T02:07:13.367Z,996.07
2019-05-18T02:08:13.369Z,996.05
2019-05-18T02:09:13.360Z,996.07
2019-05-18T02:10:13.355Z,996.09
2019-05-18T02:11:13.350Z,996.04
2019-05-18T02:12:13.346Z,996.07
2019-05-18T02:13:13.341Z,996.08
2019-05-18T02:14:13.336Z,996.07
2019-05-18T02:15:13.334Z,996.06
2019-05-18T02:16:13.330Z,996.04
2019-05-18T02:17:13.329Z,996.00
2019-05-18T02:18:26.878Z,996.01
2019-05-18T02:19:13.320Z,996.00
2019-05-18T02:20:13.311Z,996.01
2019-05-18T02:21:13.316Z,996.03
2019-05-18T02:22:13.305Z,996.02
2019-05-18T02:23:13.306Z,996.03
2019-05-18T02:24:13.307Z,996.05
2019-05-18T02:25:13.291Z,996.00
2019-05-18T02:26:13.286Z,995.98
2019-05-18T02:27:13.281Z,995.98
2019-05-18T02:28:13.278Z,996.02
2019-05-18T02:29:13.273Z,995.95
2019-05-18T02:30:17.340Z,995.93
2019-05-18T02:31:13.265Z,995.95
2019-05-18T02:32:13.261Z,995.94
2019-05-18T02:33:13.261Z,995.95
2019-05-18T02:34:13.256Z,995.95
2019-05-18T02:35:13.248Z,995.93
2019-05-18T02:36:13.246Z,995.96
2019-05-18T02:37:13.239Z,995.97
2019-05-18T02:38:13.237Z,995.98
2019-05-18T02:39:13.231Z,995.99
2019-05-18T02:40:13.227Z,995.95
2019-05-18T02:41:13.223Z,995.97
2019-05-18T02:42:13.217Z,995.97
2019-05-18T02:43:13.213Z,995.91
2019-05-18T02:44:13.211Z,995.91
2019-05-18T02:45:13.204Z,995.91
2019-05-18T02:46:13.204Z,995.89
2019-05-18T02:47:13.197Z,995.90
2019-05-18T02:48:13.193Z,995.89
2019-05-18T02:49:13.188Z,995.93
2019-05-18T02:50:13.185Z,995.93
2019-05-18T02:51:13.179Z,995.93
2019-05-18T02:52:13.175Z,995.93
2019-05-18T02:53:13.168Z,995.95
2019-05-18T02:54:13.164Z,995.96
2019-05-18T02:55:13.160Z,995.93
2019-05-18T02:56:13.155Z,995.90
2019-05-18T02:57:13.153Z,995.90
2019-05-18T02:58:13.148Z,995.89
2019-05-18T02:59:13.145Z,995.87
2019-05-18T03:00:13.148Z,995.90
2019-05-18T03:01:13.133Z,995.89
2019-05-18T03:02:13.174Z,995.87
2019-05-18T03:03:13.142Z,995.91
2019-05-18T03:04:13.121Z,995.91
2019-05-18T03:05:13.120Z,995.92
2019-05-18T03:06:13.111Z,995.95
2019-05-18T03:07:13.106Z,995.94
2019-05-18T03:08:13.122Z,995.92
2019-05-18T03:09:13.100Z,995.90
2019-05-18T03:10:13.093Z,995.91
2019-05-18T03:11:13.090Z,995.88
2019-05-18T03:12:13.085Z,995.88
2019-05-18T03:13:13.080Z,995.86
2019-05-18T03:14:13.076Z,995.88
2019-05-18T03:15:13.073Z,995.85
2019-05-18T03:16:13.065Z,995.86
2019-05-18T03:17:13.065Z,995.89
2019-05-18T03:18:13.065Z,995.91
2019-05-18T03:19:13.052Z,995.89
2019-05-18T03:20:13.049Z,995.91
2019-05-18T03:21:13.043Z,995.86
2019-05-18T03:22:13.040Z,995.84
2019-05-18T03:23:13.038Z,995.84
2019-05-18T03:24:13.034Z,995.84
2019-05-18T03:25:13.034Z,995.85
2019-05-18T03:26:13.029Z,995.86
2019-05-18T03:27:13.022Z,995.88
2019-05-18T03:28:13.011Z,995.84
2019-05-18T03:29:13.008Z,995.84
2019-05-18T03:30:13.008Z,995.86
2019-05-18T03:31:13.022Z,995.83
2019-05-18T03:32:12.994Z,995.86
2019-05-18T03:33:12.990Z,995.85
2019-05-18T03:34:12.989Z,995.81
2019-05-18T03:35:12.980Z,995.86
2019-05-18T03:36:12.976Z,995.84
2019-05-18T03:37:12.970Z,995.82
2019-05-18T03:38:12.966Z,995.82
2019-05-18T03:39:12.963Z,995.82
2019-05-18T03:40:12.956Z,995.83
2019-05-18T03:41:12.952Z,995.78
2019-05-18T03:42:12.946Z,995.78
2019-05-18T03:43:12.978Z,995.75
2019-05-18T03:44:12.937Z,995.76
2019-05-18T03:45:12.934Z,995.78
2019-05-18T03:46:12.928Z,995.75
2019-05-18T03:47:12.924Z,995.76
2019-05-18T03:48:12.919Z,995.73
2019-05-18T03:49:26.476Z,995.77
2019-05-18T03:50:12.910Z,995.76
2019-05-18T03:51:12.909Z,995.74
2019-05-18T03:52:12.905Z,995.74
2019-05-18T03:53:12.901Z,995.77
2019-05-18T03:54:12.890Z,995.73
2019-05-18T03:55:12.893Z,995.74
2019-05-18T03:56:12.885Z,995.80
2019-05-18T03:57:12.880Z,995.80
2019-05-18T03:58:12.871Z,995.81
2019-05-18T03:59:12.867Z,995.80
2019-05-18T04:00:12.864Z,995.79
2019-05-18T04:01:12.859Z,995.80
2019-05-18T04:02:12.852Z,995.82
2019-05-18T04:03:12.849Z,995.78
2019-05-18T04:04:12.845Z,995.83
2019-05-18T04:05:12.839Z,995.85
2019-05-18T04:06:12.840Z,995.84
2019-05-18T04:07:12.829Z,995.85
2019-05-18T04:08:12.826Z,995.85
2019-05-18T04:09:12.822Z,995.84
2019-05-18T04:10:12.818Z,995.85
2019-05-18T04:11:12.822Z,995.87
2019-05-18T04:12:12.816Z,995.87
2019-05-18T04:13:12.803Z,995.89
2019-05-18T04:14:12.797Z,995.85
2019-05-18T04:15:12.813Z,995.89
2019-05-18T04:16:12.791Z,995.89
2019-05-18T04:17:12.782Z,995.88
2019-05-18T04:18:12.778Z,995.91
2019-05-18T04:19:12.775Z,995.92
2019-05-18T04:20:12.768Z,995.93
2019-05-18T04:21:12.765Z,995.96
2019-05-18T04:22:12.759Z,995.95
2019-05-18T04:23:12.756Z,995.96
2019-05-18T04:24:12.749Z,995.96
2019-05-18T04:25:12.746Z,995.96
2019-05-18T04:26:12.742Z,995.98
2019-05-18T04:27:12.740Z,995.96
2019-05-18T04:28:12.733Z,995.96
2019-05-18T04:29:12.732Z,995.96
2019-05-18T04:30:12.726Z,995.92
2019-05-18T04:31:12.719Z,995.91
2019-05-18T04:32:12.718Z,995.89
2019-05-18T04:33:12.727Z,995.92
2019-05-18T04:34:12.703Z,995.92
2019-05-18T04:35:12.699Z,995.93
2019-05-18T04:36:12.712Z,995.96
2019-05-18T04:37:12.691Z,995.95
2019-05-18T04:38:12.691Z,995.98
2019-05-18T04:39:12.683Z,996.00
2019-05-18T04:40:12.678Z,995.97
2019-05-18T04:41:12.680Z,995.95
2019-05-18T04:42:12.672Z,995.94
2019-05-18T04:43:12.670Z,995.94
2019-05-18T04:44:12.660Z,995.94
2019-05-18T04:45:12.658Z,995.93
2019-05-18T04:46:12.656Z,995.95
2019-05-18T04:47:12.651Z,995.93
2019-05-18T04:48:12.666Z,995.88
2019-05-18T04:49:12.636Z,995.92
2019-05-18T04:50:12.639Z,995.86
2019-05-18T04:51:12.633Z,995.86
2019-05-18T04:52:12.625Z,995.84
2019-05-18T04:53:12.621Z,995.82
2019-05-18T04:54:12.618Z,995.81
2019-05-18T04:55:12.609Z,995.87
2019-05-18T04:56:12.606Z,995.81
2019-05-18T04:57:12.605Z,995.79
2019-05-18T04:58:12.598Z,995.83
2019-05-18T04:59:12.592Z,995.80
2019-05-18T05:00:12.590Z,995.80
2019-05-18T05:01:12.586Z,995.81
2019-05-18T05:02:12.582Z,995.84
2019-05-18T05:03:12.579Z,995.83
2019-05-18T05:04:12.578Z,995.86
2019-05-18T05:05:12.568Z,995.81
2019-05-18T05:06:12.563Z,995.85
2019-05-18T05:07:12.564Z,995.86
2019-05-18T05:08:12.554Z,995.90
2019-05-18T05:09:12.550Z,995.90
2019-05-18T05:10:12.548Z,995.86
2019-05-18T05:11:12.541Z,995.87
2019-05-18T05:12:12.538Z,995.90
2019-05-18T05:13:12.537Z,995.88
2019-05-18T05:14:12.530Z,995.86
2019-05-18T05:15:12.524Z,995.88
2019-05-18T05:16:12.521Z,995.89
2019-05-18T05:17:12.538Z,995.88
2019-05-18T05:18:12.512Z,995.90
2019-05-18T05:19:12.510Z,995.88
2019-05-18T05:20:19.890Z,995.91
2019-05-18T05:21:12.504Z,995.90
2019-05-18T05:22:12.498Z,995.88
2019-05-18T05:23:12.498Z,995.86
2019-05-18T05:24:12.489Z,995.92
2019-05-18T05:25:12.489Z,995.93
2019-05-18T05:26:12.483Z,995.95
2019-05-18T05:27:12.478Z,995.96
2019-05-18T05:28:12.476Z,996.05
2019-05-18T05:29:12.473Z,996.02
2019-05-18T05:30:12.470Z,996.05
2019-05-18T05:31:12.463Z,996.05
2019-05-18T05:32:12.465Z,996.05
2019-05-18T05:33:12.461Z,996.01
2019-05-18T05:34:12.452Z,996.05
2019-05-18T05:35:12.466Z,996.01
2019-05-18T05:36:12.446Z,996.03
2019-05-18T05:37:12.448Z,996.03
2019-05-18T05:38:12.438Z,996.06
2019-05-18T05:39:12.438Z,996.08
2019-05-18T05:40:12.432Z,996.13
2019-05-18T05:41:16.507Z,996.14
2019-05-18T05:42:12.425Z,996.17
2019-05-18T05:43:12.423Z,996.17
2019-05-18T05:44:12.421Z,996.18
2019-05-18T05:45:12.418Z,996.19
2019-05-18T05:46:12.417Z,996.22
2019-05-18T05:47:12.412Z,996.26
2019-05-18T05:48:12.405Z,996.23
2019-05-18T05:49:12.402Z,996.22
2019-05-18T05:50:12.428Z,996.26
2019-05-18T05:51:12.400Z,996.24
2019-05-18T05:52:12.392Z,996.21
2019-05-18T05:53:12.390Z,996.19
2019-05-18T05:54:12.386Z,996.21
2019-05-18T05:55:12.383Z,996.20
2019-05-18T05:56:12.380Z,996.19
2019-05-18T05:57:12.383Z,996.20
2019-05-18T05:58:12.372Z,996.18
2019-05-18T05:59:12.370Z,996.21
2019-05-18T06:00:12.367Z,996.21
2019-05-18T06:01:12.365Z,996.19
2019-05-18T06:02:12.362Z,996.20
2019-05-18T06:03:12.359Z,996.20
2019-05-18T06:04:12.356Z,996.20
2019-05-18T06:05:12.352Z,996.22
2019-05-18T06:06:12.350Z,996.25
2019-05-18T06:07:12.348Z,996.21
2019-05-18T06:08:12.346Z,996.20
2019-05-18T06:09:12.343Z,996.19
2019-05-18T06:10:12.337Z,996.18
2019-05-18T06:11:12.336Z,996.23
2019-05-18T06:12:12.333Z,996.19
2019-05-18T06:13:12.332Z,996.21
2019-05-18T06:14:12.340Z,996.20
2019-05-18T06:15:12.324Z,996.25
2019-05-18T06:16:12.325Z,996.21
2019-05-18T06:17:12.320Z,996.26
2019-05-18T06:18:12.316Z,996.27
2019-05-18T06:19:12.315Z,996.24
2019-05-18T06:20:12.312Z,996.25
2019-05-18T06:21:12.310Z,996.25
2019-05-18T06:22:12.306Z,996.29
2019-05-18T06:23:12.306Z,996.29
2019-05-18T06:24:12.302Z,996.30
2019-05-18T06:25:12.407Z,996.27
2019-05-18T06:26:12.308Z,996.28
2019-05-18T06:27:12.293Z,996.29
2019-05-18T06:28:12.342Z,996.28
2019-05-18T06:29:12.291Z,996.28
2019-05-18T06:30:12.300Z,996.28
2019-05-18T06:31:12.286Z,996.30
2019-05-18T06:32:12.282Z,996.26
2019-05-18T06:33:12.280Z,996.28
2019-05-18T06:34:12.278Z,996.28
2019-05-18T06:35:12.275Z,996.29
2019-05-18T06:36:12.273Z,996.24
2019-05-18T06:37:12.271Z,996.24
2019-05-18T06:38:12.268Z,996.24
2019-05-18T06:39:12.265Z,996.24
2019-05-18T06:40:12.263Z,996.25
2019-05-18T06:41:12.267Z,996.24
2019-05-18T06:42:12.260Z,996.26
2019-05-18T06:43:12.257Z,996.26
2019-05-18T06:44:12.255Z,996.25
2019-05-18T06:45:12.254Z,996.24
2019-05-18T06:46:12.251Z,996.27
2019-05-18T06:47:12.250Z,996.26
2019-05-18T06:48:12.248Z,996.23
2019-05-18T06:49:12.263Z,996.29
2019-05-18T06:50:13.223Z,996.23
2019-05-18T06:51:12.242Z,996.28
2019-05-18T06:52:12.240Z,996.30
2019-05-18T06:53:12.237Z,996.33
2019-05-18T06:54:12.250Z,996.28
2019-05-18T06:55:12.235Z,996.34
2019-05-18T06:56:12.235Z,996.34
2019-05-18T06:57:12.231Z,996.35
2019-05-18T06:58:12.227Z,996.31
2019-05-18T06:59:12.227Z,996.36
2019-05-18T07:00:12.226Z,996.37
2019-05-18T07:01:12.223Z,996.38
2019-05-18T07:02:12.223Z,996.38
2019-05-18T07:03:12.221Z,996.38
2019-05-18T07:04:12.231Z,996.36
2019-05-18T07:05:12.217Z,996.32
2019-05-18T07:06:12.216Z,996.36
2019-05-18T07:07:12.215Z,996.37
2019-05-18T07:08:12.212Z,996.34
2019-05-18T07:09:13.984Z,996.34
2019-05-18T07:10:12.212Z,996.38
2019-05-18T07:11:12.209Z,996.36
2019-05-18T07:12:12.212Z,996.40
2019-05-18T07:13:12.207Z,996.40
2019-05-18T07:14:24.888Z,996.37
2019-05-18T07:15:12.203Z,996.36
2019-05-18T07:16:12.203Z,996.37
2019-05-18T07:17:12.202Z,996.35
2019-05-18T07:18:12.200Z,996.37
2019-05-18T07:19:12.204Z,996.42
2019-05-18T07:20:12.209Z,996.39
2019-05-18T07:21:21.880Z,996.40
2019-05-18T07:22:12.196Z,996.39
2019-05-18T07:23:12.200Z,996.42
2019-05-18T07:24:12.194Z,996.45
2019-05-18T07:25:12.193Z,996.50
2019-05-18T07:26:12.192Z,996.47
2019-05-18T07:27:12.193Z,996.50
2019-05-18T07:28:12.193Z,996.52
2019-05-18T07:29:12.189Z,996.49
2019-05-18T07:30:12.189Z,996.52
2019-05-18T07:37:10.390Z,996.42
2019-05-18T07:45:58.517Z,996.58
2019-05-18T07:46:58.514Z,996.57
2019-05-18T07:47:58.516Z,996.59
2019-05-18T07:48:58.519Z,996.63
2019-05-18T07:49:58.515Z,996.73
2019-05-18T07:50:58.516Z,996.78
2019-05-18T07:51:58.517Z,996.97
2019-05-18T07:52:58.518Z,996.97
2019-05-18T07:53:58.520Z,996.69
2019-05-18T07:54:58.523Z,996.94
2019-05-18T07:55:58.523Z,996.75
2019-05-18T07:56:58.525Z,996.75
2019-05-18T07:57:58.528Z,996.65
2019-05-18T07:58:58.530Z,996.56
2019-05-18T07:59:58.534Z,996.56
2019-05-18T08:00:58.538Z,996.69
2019-05-18T08:01:58.543Z,996.66
2019-05-18T08:02:58.545Z,996.60
2019-05-18T08:03:58.549Z,996.65
2019-05-18T08:04:58.554Z,996.65
2019-05-18T08:05:58.557Z,996.65
2019-05-18T08:06:58.564Z,996.65
2019-05-18T08:07:58.564Z,996.66
2019-05-18T08:08:58.568Z,996.67
2019-05-18T08:09:58.571Z,996.67
2019-05-18T08:10:58.575Z,996.70
2019-05-18T08:11:58.579Z,996.71
2019-05-18T08:12:58.583Z,996.68
2019-05-18T08:13:58.587Z,996.79
2019-05-18T08:14:58.593Z,996.73
2019-05-18T08:15:58.601Z,996.87
2019-05-18T08:16:58.600Z,996.69
2019-05-18T08:17:58.606Z,996.68
2019-05-18T08:18:58.609Z,996.68
2019-05-18T08:19:58.614Z,996.69
2019-05-18T08:20:58.628Z,996.66
2019-05-18T08:21:58.627Z,996.68
2019-05-18T08:22:58.626Z,996.70
2019-05-18T08:23:58.634Z,996.70
2019-05-18T08:24:58.638Z,996.69
2019-05-18T08:25:58.644Z,996.83
2019-05-18T08:27:01.834Z,996.83
2019-05-18T08:27:58.653Z,996.77
2019-05-18T08:28:58.662Z,996.77
2019-05-18T08:29:58.667Z,996.86
2019-05-18T08:30:58.673Z,996.81
2019-05-18T08:31:58.676Z,996.82
2019-05-18T08:32:58.681Z,996.95
2019-05-18T08:33:58.687Z,996.82
2019-05-18T08:34:58.692Z,996.85
2019-05-18T08:35:58.703Z,996.78
2019-05-18T08:36:58.704Z,996.78
2019-05-18T08:37:58.710Z,996.80
2019-05-18T08:38:58.717Z,996.87
2019-05-18T08:39:58.728Z,996.82
2019-05-18T08:40:58.731Z,996.91
2019-05-18T08:41:58.736Z,996.82
2019-05-18T08:42:58.742Z,996.88
2019-05-18T08:43:58.761Z,997.07
2019-05-18T08:44:58.759Z,997.01
2019-05-18T08:45:58.764Z,996.94
2019-05-18T08:46:58.771Z,996.85
2019-05-18T08:47:58.780Z,996.89
2019-05-18T08:48:58.787Z,996.85
2019-05-18T08:49:58.793Z,996.85
2019-05-18T08:50:58.802Z,996.86
2019-05-18T08:52:07.763Z,996.87
2019-05-18T08:52:58.819Z,996.79
2019-05-18T08:53:58.836Z,996.79
2019-05-18T08:54:58.835Z,996.76
2019-05-18T08:56:58.854Z,996.77
2019-05-18T08:57:58.865Z,996.72
2019-05-18T08:58:58.870Z,996.69
2019-05-18T09:00:58.889Z,996.68
2019-05-18T09:01:58.899Z,996.68
2019-05-18T09:02:58.906Z,996.71
2019-05-18T09:03:58.917Z,996.69
2019-05-18T09:04:58.953Z,996.68
2019-05-18T09:05:58.931Z,996.72
2019-05-18T09:06:58.936Z,996.77
2019-05-18T09:07:58.944Z,996.79
2019-05-18T09:08:58.953Z,996.77
2019-05-18T09:09:58.960Z,996.77
2019-05-18T09:10:58.972Z,996.76
2019-05-18T09:11:58.977Z,996.78
2019-05-18T09:12:58.984Z,996.94
2019-05-18T09:13:58.989Z,996.90
2019-05-18T09:14:58.999Z,996.87
2019-05-18T09:15:59.006Z,996.90
2019-05-18T09:16:59.012Z,996.91
2019-05-18T09:17:59.028Z,996.98
2019-05-18T09:18:59.030Z,996.99
2019-05-18T09:19:59.039Z,997.05
2019-05-18T09:20:59.046Z,997.01
2019-05-18T09:21:59.051Z,997.04
2019-05-18T09:22:59.058Z,997.03
2019-05-18T09:23:59.069Z,997.02
2019-05-18T09:24:59.075Z,996.99
2019-05-18T09:25:59.085Z,996.93
2019-05-18T09:26:59.103Z,996.96
2019-05-18T09:27:59.104Z,996.97
2019-05-18T09:28:59.110Z,996.89
2019-05-18T09:29:59.118Z,996.94
2019-05-18T09:30:59.124Z,996.93
2019-05-18T09:31:59.136Z,996.92
2019-05-18T09:32:59.143Z,996.92
2019-05-18T09:33:59.153Z,996.90
2019-05-18T09:34:59.167Z,996.82
2019-05-18T09:35:59.169Z,996.80
2019-05-18T09:36:59.178Z,996.80
2019-05-18T09:37:59.189Z,997.00
2019-05-18T09:38:59.200Z,996.86
2019-05-18T09:39:59.203Z,996.94
2019-05-18T09:40:59.213Z,997.29
2019-05-18T09:41:59.221Z,997.11
2019-05-18T09:42:59.230Z,996.99
2019-05-18T09:43:59.239Z,997.16
2019-05-18T09:44:59.250Z,996.81
2019-05-18T09:45:59.258Z,997.16
2019-05-18T09:46:59.268Z,997.22
2019-05-18T09:47:59.278Z,997.39
2019-05-18T09:48:59.288Z,997.30
2019-05-18T09:49:59.297Z,997.17
2019-05-18T09:50:59.307Z,996.83
2019-05-18T09:51:59.318Z,996.84
2019-05-18T09:52:59.329Z,996.79
2019-05-18T09:53:59.337Z,996.78
2019-05-18T09:54:59.349Z,996.80
2019-05-18T09:55:59.359Z,996.97
2019-05-18T09:56:59.369Z,996.82
2019-05-18T09:57:59.377Z,996.85
2019-05-18T09:58:59.389Z,996.80
2019-05-18T09:59:59.399Z,996.79
2019-05-18T10:00:59.408Z,996.78
2019-05-18T10:01:59.419Z,996.88
2019-05-18T10:02:59.429Z,996.76
2019-05-18T10:03:59.438Z,996.75
2019-05-18T10:04:59.493Z,996.81
2019-05-18T10:05:59.457Z,996.78
2019-05-18T10:06:59.468Z,996.79
2019-05-18T10:07:59.476Z,996.80
2019-05-18T10:08:59.486Z,996.81
2019-05-18T10:09:59.497Z,996.82
2019-05-18T10:10:59.503Z,996.77
2019-05-18T10:11:59.517Z,996.80
2019-05-18T10:12:59.523Z,996.83
2019-05-18T10:13:59.557Z,996.80
2019-05-18T10:14:59.542Z,996.77
2019-05-18T10:15:59.550Z,996.80
2019-05-18T10:16:59.563Z,996.88
2019-05-18T10:17:59.582Z,996.84
2019-05-18T10:18:59.577Z,996.85
2019-05-18T10:19:59.588Z,996.86
2019-05-18T10:20:59.593Z,996.83
2019-05-18T10:21:59.609Z,997.08
2019-05-18T10:23:12.248Z,996.88
2019-05-18T10:23:59.621Z,996.85
2019-05-18T10:24:59.632Z,996.79
2019-05-18T10:25:59.637Z,996.79
2019-05-18T10:26:59.644Z,996.96
2019-05-18T10:27:59.655Z,997.12
2019-05-18T10:28:59.664Z,997.08
2019-05-18T10:29:59.680Z,997.05
2019-05-18T10:30:59.681Z,997.04
2019-05-18T10:31:59.689Z,997.14
2019-05-18T10:32:59.698Z,997.03
2019-05-18T10:33:59.706Z,996.78
2019-05-18T10:34:59.716Z,996.75
2019-05-18T10:35:59.726Z,996.92
2019-05-18T10:36:59.735Z,997.10
2019-05-18T10:37:59.742Z,996.99
2019-05-18T10:38:59.754Z,996.74
2019-05-18T10:39:59.763Z,996.87
2019-05-18T10:40:59.776Z,997.04
2019-05-18T10:41:59.782Z,996.83
2019-05-18T10:42:59.791Z,997.03
2019-05-18T10:43:59.801Z,997.05
2019-05-18T10:44:59.809Z,997.06
2019-05-18T10:45:59.831Z,997.10
2019-05-18T10:46:59.828Z,997.11
2019-05-18T10:47:59.878Z,997.07
2019-05-18T10:48:59.851Z,997.06
2019-05-18T10:49:59.858Z,996.97
2019-05-18T10:50:59.868Z,997.07
2019-05-18T10:51:59.888Z,997.08
2019-05-18T10:52:59.890Z,997.07
2019-05-18T10:53:59.898Z,997.07
2019-05-18T10:54:59.910Z,997.06
2019-05-18T10:55:59.920Z,997.03
2019-05-18T10:56:59.930Z,997.05
2019-05-18T10:57:59.940Z,997.05
2019-05-18T10:58:59.951Z,997.04
2019-05-18T10:59:59.964Z,997.05
2019-05-18T11:00:59.972Z,997.09
2019-05-18T11:01:59.982Z,996.82
2019-05-18T11:02:59.993Z,996.74
2019-05-18T11:04:00.003Z,996.79
2019-05-18T11:05:00.016Z,996.84
2019-05-18T11:06:00.025Z,996.88
2019-05-18T11:07:00.036Z,996.87
2019-05-18T11:08:00.047Z,996.89
2019-05-18T11:09:00.059Z,996.88
2019-05-18T11:10:00.067Z,996.85
2019-05-18T11:11:00.077Z,996.80
2019-05-18T11:12:00.094Z,996.71
2019-05-18T11:13:00.099Z,996.62
2019-05-18T11:14:00.109Z,996.60
2019-05-18T11:15:00.124Z,996.61
2019-05-18T11:16:00.128Z,996.75
2019-05-18T11:17:00.139Z,996.56
2019-05-18T11:18:00.148Z,996.55
2019-05-18T11:19:00.158Z,996.47
2019-05-18T11:20:00.172Z,996.45
2019-05-18T11:21:00.179Z,996.45
2019-05-18T11:22:00.185Z,996.41
2019-05-18T11:23:00.194Z,996.46
2019-05-18T11:24:00.204Z,996.45
2019-05-18T11:25:00.212Z,996.41
2019-05-18T11:26:00.222Z,996.37
2019-05-18T11:27:00.228Z,996.39
2019-05-18T11:28:00.237Z,996.41
2019-05-18T11:29:00.245Z,996.43
2019-05-18T11:30:00.256Z,996.40
2019-05-18T11:31:00.261Z,996.40
2019-05-18T11:32:00.270Z,996.38
2019-05-18T11:33:00.277Z,996.35
2019-05-18T11:34:00.284Z,996.37
2019-05-18T11:35:00.318Z,996.37
2019-05-18T11:36:00.304Z,996.33
2019-05-18T11:37:03.139Z,996.33
2019-05-18T11:38:00.314Z,996.29
2019-05-18T11:39:00.321Z,996.28
2019-05-18T11:40:00.329Z,996.23
2019-05-18T11:41:00.337Z,996.21
2019-05-18T11:42:00.342Z,996.28
2019-05-18T11:43:00.349Z,996.27
2019-05-18T11:44:00.358Z,996.26
2019-05-18T11:45:00.366Z,996.27
2019-05-18T11:46:00.369Z,996.29
2019-05-18T11:47:00.377Z,996.28
2019-05-18T11:48:00.383Z,996.24
2019-05-18T11:49:00.391Z,996.23
2019-05-18T11:50:00.399Z,996.17
2019-05-18T11:51:00.405Z,996.18
2019-05-18T11:52:00.409Z,996.17
2019-05-18T11:53:00.416Z,996.20
2019-05-18T11:54:00.421Z,996.23
2019-05-18T11:55:00.428Z,996.25
2019-05-18T11:56:00.448Z,996.22
2019-05-18T11:57:00.463Z,996.19
2019-05-18T11:58:00.448Z,996.23
2019-05-18T11:59:00.456Z,996.23
2019-05-18T12:00:00.461Z,996.21
2019-05-18T12:01:00.466Z,996.23
2019-05-18T12:02:00.472Z,996.17
2019-05-18T12:03:00.481Z,996.15
2019-05-18T12:04:00.489Z,996.19
2019-05-18T12:05:00.490Z,996.15
2019-05-18T12:06:00.494Z,996.11
2019-05-18T12:07:00.625Z,996.05
2019-05-18T12:08:00.509Z,996.15
2019-05-18T12:09:00.513Z,996.12
2019-05-18T12:10:00.521Z,996.08
2019-05-18T12:11:00.523Z,996.07
2019-05-18T12:12:00.536Z,996.04
2019-05-18T12:13:00.536Z,996.05
2019-05-18T12:14:00.541Z,996.11
2019-05-18T12:15:00.547Z,996.06
2019-05-18T12:16:00.555Z,996.04
2019-05-18T12:17:00.558Z,996.04
2019-05-18T12:18:00.598Z,996.04
2019-05-18T12:19:00.572Z,996.01
2019-05-18T12:20:00.576Z,995.98
2019-05-18T12:21:00.580Z,995.99
2019-05-18T12:22:00.586Z,995.98
2019-05-18T12:23:00.593Z,996.00
2019-05-18T12:24:14.143Z,995.97
2019-05-18T12:25:00.608Z,995.98
2019-05-18T12:26:00.623Z,995.99
2019-05-18T12:27:00.613Z,996.06
2019-05-18T12:28:00.621Z,996.04
2019-05-18T12:29:00.624Z,996.03
2019-05-18T12:30:00.628Z,995.99
2019-05-18T12:31:02.163Z,995.97
2019-05-18T12:32:00.638Z,996.02
2019-05-18T12:33:00.649Z,996.03
2019-05-18T12:34:00.658Z,995.98
2019-05-18T12:35:00.655Z,996.03
2019-05-18T12:36:00.658Z,996.04
2019-05-18T12:37:00.674Z,996.02
2019-05-18T12:38:00.672Z,996.08
2019-05-18T12:39:00.675Z,996.03
2019-05-18T12:40:00.687Z,996.05
2019-05-18T12:41:00.685Z,996.07
2019-05-18T12:42:00.689Z,995.97
2019-05-18T12:43:00.695Z,996.08
2019-05-18T12:44:00.699Z,996.04